sensor_id;sensor_type;location;lat;lon;timestamp;P1;durP1;ratioP1;P2;durP2;ratioP2
60641;SDS011;46837;52.446;-1.930;2023-06-22T00:00:11;7.24;;;6.14;;
60641;SDS011;46837;52.446;-1.930;2023-06-22T00:01:07;7.70;;;5.90;;
60641;SDS011;46837;52.446;-1.930;2023-06-22T00:02:07;9.24;;;6.62;;
60641;SDS011;46837;52.446;-1.930;2023-06-22T00:03:07;8.12;;;5.54;;
60641;SDS011;46837;52.446;-1.930;2023-06-22T00:04:07;6.04;;;5.08;;
60641;SDS011;46837;52.446;-1.930;2023-06-22T00:05:07;7.64;;;6.32;;
60641;SDS011;46837;52.446;-1.930;2023-06-22T00:06:07;6.82;;;6.20;;
60641;SDS011;46837;52.446;-1.930;2023-06-22T00:07:07;6.82;;;6.02;;
60641;SDS011;46837;52.446;-1.930;2023-06-22T00:08:07;5.44;;;4.94;;
60641;SDS011;46837;52.446;-1.930;2023-06-22T00:09:07;8.20;;;6.30;;
60641;SDS011;46837;52.446;-1.930;2023-06-22T00:10:07;7.14;;;5.74;;
60641;SDS011;46837;52.446;-1.930;2023-06-22T00:11:07;6.36;;;5.76;;
60641;SDS011;46837;52.446;-1.930;2023-06-22T00:12:07;9.18;;;5.76;;
60641;SDS011;46837;52.446;-1.930;2023-06-22T00:13:07;8.08;;;6.44;;
60641;SDS011;46837;52.446;-1.930;2023-06-22T00:14:07;7.50;;;6.08;;
60641;SDS011;46837;52.446;-1.930;2023-06-22T00:15:07;9.36;;;6.00;;
60641;SDS011;46837;52.446;-1.930;2023-06-22T00:16:07;9.62;;;7.10;;
60641;SDS011;46837;52.446;-1.930;2023-06-22T00:17:07;6.78;;;6.10;;
60641;SDS011;46837;52.446;-1.930;2023-06-22T00:18:07;7.96;;;6.14;;
60641;SDS011;46837;52.446;-1.930;2023-06-22T00:19:07;6.60;;;5.98;;
60641;SDS011;46837;52.446;-1.930;2023-06-22T00:20:07;8.20;;;5.72;;
60641;SDS011;46837;52.446;-1.930;2023-06-22T00:21:07;9.06;;;6.04;;
60641;SDS011;46837;52.446;-1.930;2023-06-22T00:22:07;5.86;;;5.22;;
60641;SDS011;46837;52.446;-1.930;2023-06-22T00:23:11;7.30;;;6.00;;
60641;SDS011;46837;52.446;-1.930;2023-06-22T00:24:07;16.12;;;6.72;;
60641;SDS011;46837;52.446;-1.930;2023-06-22T00:25:07;10.40;;;6.62;;
60641;SDS011;46837;52.446;-1.930;2023-06-22T00:26:07;10.48;;;6.58;;
60641;SDS011;46837;52.446;-1.930;2023-06-22T00:27:07;12.06;;;6.24;;
60641;SDS011;46837;52.446;-1.930;2023-06-22T00:28:07;6.78;;;6.06;;
60641;SDS011;46837;52.446;-1.930;2023-06-22T00:29:07;9.90;;;7.22;;
60641;SDS011;46837;52.446;-1.930;2023-06-22T00:30:07;11.44;;;6.86;;
60641;SDS011;46837;52.446;-1.930;2023-06-22T00:31:07;9.48;;;6.34;;
60641;SDS011;46837;52.446;-1.930;2023-06-22T00:32:07;7.24;;;6.38;;
60641;SDS011;46837;52.446;-1.930;2023-06-22T00:33:08;9.36;;;6.10;;
60641;SDS011;46837;52.446;-1.930;2023-06-22T00:34:07;9.36;;;7.34;;
60641;SDS011;46837;52.446;-1.930;2023-06-22T00:35:07;9.96;;;7.52;;
60641;SDS011;46837;52.446;-1.930;2023-06-22T00:36:07;8.98;;;7.68;;
60641;SDS011;46837;52.446;-1.930;2023-06-22T00:37:07;8.76;;;7.12;;
60641;SDS011;46837;52.446;-1.930;2023-06-22T00:38:07;12.52;;;6.82;;
60641;SDS011;46837;52.446;-1.930;2023-06-22T00:39:07;7.54;;;6.70;;
60641;SDS011;46837;52.446;-1.930;2023-06-22T00:40:07;8.36;;;5.68;;
60641;SDS011;46837;52.446;-1.930;2023-06-22T00:41:07;7.94;;;5.66;;
60641;SDS011;46837;52.446;-1.930;2023-06-22T00:42:07;7.70;;;5.28;;
60641;SDS011;46837;52.446;-1.930;2023-06-22T00:43:07;9.20;;;5.46;;
60641;SDS011;46837;52.446;-1.930;2023-06-22T00:44:07;6.84;;;5.32;;
60641;SDS011;46837;52.446;-1.930;2023-06-22T00:45:07;9.66;;;6.18;;
60641;SDS011;46837;52.446;-1.930;2023-06-22T00:46:07;8.26;;;6.12;;
60641;SDS011;46837;52.446;-1.930;2023-06-22T00:47:07;5.36;;;4.88;;
60641;SDS011;46837;52.446;-1.930;2023-06-22T00:48:07;7.82;;;5.90;;
60641;SDS011;46837;52.446;-1.930;2023-06-22T00:49:07;8.36;;;6.02;;
60641;SDS011;46837;52.446;-1.930;2023-06-22T00:50:07;9.18;;;6.82;;
60641;SDS011;46837;52.446;-1.930;2023-06-22T00:51:07;7.94;;;6.36;;
60641;SDS011;46837;52.446;-1.930;2023-06-22T00:52:09;7.76;;;5.84;;
60641;SDS011;46837;52.446;-1.930;2023-06-22T00:53:09;7.54;;;5.76;;
60641;SDS011;46837;52.446;-1.930;2023-06-22T00:54:07;7.52;;;6.26;;
60641;SDS011;46837;52.446;-1.930;2023-06-22T00:55:07;8.06;;;6.86;;
60641;SDS011;46837;52.446;-1.930;2023-06-22T00:56:07;5.80;;;5.24;;
60641;SDS011;46837;52.446;-1.930;2023-06-22T00:57:07;6.30;;;5.40;;
60641;SDS011;46837;52.446;-1.930;2023-06-22T00:58:08;7.84;;;5.92;;
60641;SDS011;46837;52.446;-1.930;2023-06-22T00:59:07;6.76;;;5.18;;
60641;SDS011;46837;52.446;-1.930;2023-06-22T01:00:10;6.60;;;5.34;;
60641;SDS011;46837;52.446;-1.930;2023-06-22T01:01:07;5.84;;;5.28;;
60641;SDS011;46837;52.446;-1.930;2023-06-22T01:02:07;7.22;;;5.54;;
60641;SDS011;46837;52.446;-1.930;2023-06-22T01:03:09;7.16;;;5.68;;
60641;SDS011;46837;52.446;-1.930;2023-06-22T01:04:07;7.94;;;5.58;;
60641;SDS011;46837;52.446;-1.930;2023-06-22T01:05:07;8.28;;;6.18;;
60641;SDS011;46837;52.446;-1.930;2023-06-22T01:06:10;6.40;;;5.32;;
60641;SDS011;46837;52.446;-1.930;2023-06-22T01:08:09;8.26;;;5.98;;
60641;SDS011;46837;52.446;-1.930;2023-06-22T01:09:15;9.66;;;6.18;;
60641;SDS011;46837;52.446;-1.930;2023-06-22T01:11:50;6.84;;;4.86;;
60641;SDS011;46837;52.446;-1.930;2023-06-22T01:12:07;6.62;;;4.96;;
60641;SDS011;46837;52.446;-1.930;2023-06-22T01:13:13;7.78;;;5.80;;
60641;SDS011;46837;52.446;-1.930;2023-06-22T01:14:10;9.50;;;5.42;;
60641;SDS011;46837;52.446;-1.930;2023-06-22T01:16:17;5.78;;;5.18;;
60641;SDS011;46837;52.446;-1.930;2023-06-22T01:17:07;8.22;;;5.20;;
60641;SDS011;46837;52.446;-1.930;2023-06-22T01:18:07;11.32;;;6.02;;
60641;SDS011;46837;52.446;-1.930;2023-06-22T01:19:10;7.50;;;5.52;;
60641;SDS011;46837;52.446;-1.930;2023-06-22T01:20:07;7.20;;;5.62;;
60641;SDS011;46837;52.446;-1.930;2023-06-22T01:21:11;7.94;;;5.76;;
60641;SDS011;46837;52.446;-1.930;2023-06-22T01:22:07;6.36;;;4.98;;
60641;SDS011;46837;52.446;-1.930;2023-06-22T01:23:09;8.48;;;7.42;;
60641;SDS011;46837;52.446;-1.930;2023-06-22T01:29:07;4.62;;;4.26;;
60641;SDS011;46837;52.446;-1.930;2023-06-22T01:30:07;6.72;;;5.18;;
60641;SDS011;46837;52.446;-1.930;2023-06-22T01:31:07;5.16;;;4.66;;
60641;SDS011;46837;52.446;-1.930;2023-06-22T01:32:07;7.04;;;6.26;;
60641;SDS011;46837;52.446;-1.930;2023-06-22T01:33:07;5.08;;;4.42;;
60641;SDS011;46837;52.446;-1.930;2023-06-22T01:34:07;6.70;;;4.68;;
60641;SDS011;46837;52.446;-1.930;2023-06-22T01:35:07;7.60;;;4.90;;
60641;SDS011;46837;52.446;-1.930;2023-06-22T01:36:07;6.90;;;5.56;;
60641;SDS011;46837;52.446;-1.930;2023-06-22T01:37:07;8.00;;;5.74;;
60641;SDS011;46837;52.446;-1.930;2023-06-22T01:38:07;5.38;;;4.82;;
60641;SDS011;46837;52.446;-1.930;2023-06-22T01:39:07;9.06;;;5.68;;
60641;SDS011;46837;52.446;-1.930;2023-06-22T01:40:07;5.02;;;4.62;;
60641;SDS011;46837;52.446;-1.930;2023-06-22T01:41:07;9.26;;;6.02;;
60641;SDS011;46837;52.446;-1.930;2023-06-22T01:42:07;7.36;;;5.48;;
60641;SDS011;46837;52.446;-1.930;2023-06-22T01:43:07;5.18;;;4.68;;
60641;SDS011;46837;52.446;-1.930;2023-06-22T01:44:07;11.00;;;5.50;;
60641;SDS011;46837;52.446;-1.930;2023-06-22T01:45:07;6.26;;;5.74;;
60641;SDS011;46837;52.446;-1.930;2023-06-22T01:46:07;7.82;;;6.28;;
60641;SDS011;46837;52.446;-1.930;2023-06-22T01:47:07;8.04;;;5.58;;
60641;SDS011;46837;52.446;-1.930;2023-06-22T01:48:07;6.38;;;5.56;;
60641;SDS011;46837;52.446;-1.930;2023-06-22T01:49:07;7.58;;;6.04;;
60641;SDS011;46837;52.446;-1.930;2023-06-22T01:50:07;9.66;;;6.52;;
60641;SDS011;46837;52.446;-1.930;2023-06-22T01:51:07;8.38;;;5.38;;
60641;SDS011;46837;52.446;-1.930;2023-06-22T01:52:07;9.26;;;6.46;;
60641;SDS011;46837;52.446;-1.930;2023-06-22T01:53:07;6.18;;;5.52;;
60641;SDS011;46837;52.446;-1.930;2023-06-22T01:54:07;9.52;;;6.64;;
60641;SDS011;46837;52.446;-1.930;2023-06-22T01:55:07;14.58;;;5.46;;
60641;SDS011;46837;52.446;-1.930;2023-06-22T01:56:07;11.96;;;6.78;;
60641;SDS011;46837;52.446;-1.930;2023-06-22T01:57:07;7.46;;;5.38;;
60641;SDS011;46837;52.446;-1.930;2023-06-22T01:58:07;6.46;;;4.90;;
60641;SDS011;46837;52.446;-1.930;2023-06-22T01:59:09;7.48;;;5.24;;
60641;SDS011;46837;52.446;-1.930;2023-06-22T02:00:11;5.88;;;5.24;;
60641;SDS011;46837;52.446;-1.930;2023-06-22T02:01:10;5.06;;;4.56;;
60641;SDS011;46837;52.446;-1.930;2023-06-22T02:02:08;9.12;;;5.00;;
60641;SDS011;46837;52.446;-1.930;2023-06-22T02:03:08;6.36;;;5.46;;
60641;SDS011;46837;52.446;-1.930;2023-06-22T02:04:09;5.78;;;4.94;;
60641;SDS011;46837;52.446;-1.930;2023-06-22T02:05:07;8.72;;;5.50;;
60641;SDS011;46837;52.446;-1.930;2023-06-22T02:07:09;10.74;;;5.20;;
60641;SDS011;46837;52.446;-1.930;2023-06-22T02:08:11;5.96;;;5.44;;
60641;SDS011;46837;52.446;-1.930;2023-06-22T02:09:11;6.04;;;5.40;;
60641;SDS011;46837;52.446;-1.930;2023-06-22T02:10:07;7.36;;;5.34;;
60641;SDS011;46837;52.446;-1.930;2023-06-22T02:11:07;8.48;;;4.82;;
60641;SDS011;46837;52.446;-1.930;2023-06-22T02:12:07;4.12;;;3.60;;
60641;SDS011;46837;52.446;-1.930;2023-06-22T02:13:07;5.08;;;4.62;;
60641;SDS011;46837;52.446;-1.930;2023-06-22T02:14:07;6.24;;;5.42;;
60641;SDS011;46837;52.446;-1.930;2023-06-22T02:15:07;7.62;;;4.56;;
60641;SDS011;46837;52.446;-1.930;2023-06-22T02:16:07;7.14;;;3.94;;
60641;SDS011;46837;52.446;-1.930;2023-06-22T02:17:08;6.44;;;4.08;;
60641;SDS011;46837;52.446;-1.930;2023-06-22T02:18:07;10.98;;;4.92;;
60641;SDS011;46837;52.446;-1.930;2023-06-22T02:19:07;5.30;;;4.52;;
60641;SDS011;46837;52.446;-1.930;2023-06-22T02:20:11;5.64;;;4.28;;
60641;SDS011;46837;52.446;-1.930;2023-06-22T02:21:07;6.10;;;4.46;;
60641;SDS011;46837;52.446;-1.930;2023-06-22T02:22:07;16.46;;;5.94;;
60641;SDS011;46837;52.446;-1.930;2023-06-22T02:23:07;4.76;;;4.16;;
60641;SDS011;46837;52.446;-1.930;2023-06-22T02:24:07;11.90;;;5.76;;
60641;SDS011;46837;52.446;-1.930;2023-06-22T02:25:07;6.54;;;4.44;;
60641;SDS011;46837;52.446;-1.930;2023-06-22T02:26:07;6.44;;;4.14;;
60641;SDS011;46837;52.446;-1.930;2023-06-22T02:27:08;6.06;;;4.36;;
60641;SDS011;46837;52.446;-1.930;2023-06-22T02:28:07;4.58;;;4.18;;
60641;SDS011;46837;52.446;-1.930;2023-06-22T02:29:07;7.96;;;4.52;;
60641;SDS011;46837;52.446;-1.930;2023-06-22T02:30:10;7.24;;;4.06;;
60641;SDS011;46837;52.446;-1.930;2023-06-22T02:31:07;6.00;;;4.26;;
60641;SDS011;46837;52.446;-1.930;2023-06-22T02:32:07;5.58;;;4.40;;
60641;SDS011;46837;52.446;-1.930;2023-06-22T02:33:07;4.68;;;4.18;;
60641;SDS011;46837;52.446;-1.930;2023-06-22T02:34:07;5.14;;;4.60;;
60641;SDS011;46837;52.446;-1.930;2023-06-22T02:35:07;5.32;;;3.62;;
60641;SDS011;46837;52.446;-1.930;2023-06-22T02:36:07;3.78;;;3.46;;
60641;SDS011;46837;52.446;-1.930;2023-06-22T02:37:07;7.16;;;3.54;;
60641;SDS011;46837;52.446;-1.930;2023-06-22T02:38:07;9.60;;;4.36;;
60641;SDS011;46837;52.446;-1.930;2023-06-22T02:39:07;5.84;;;3.70;;
60641;SDS011;46837;52.446;-1.930;2023-06-22T02:40:07;4.56;;;3.64;;
60641;SDS011;46837;52.446;-1.930;2023-06-22T02:41:07;6.00;;;3.94;;
60641;SDS011;46837;52.446;-1.930;2023-06-22T02:42:07;6.84;;;3.70;;
60641;SDS011;46837;52.446;-1.930;2023-06-22T02:43:07;4.08;;;3.50;;
60641;SDS011;46837;52.446;-1.930;2023-06-22T02:44:07;6.36;;;3.48;;
60641;SDS011;46837;52.446;-1.930;2023-06-22T02:45:07;6.62;;;4.04;;
60641;SDS011;46837;52.446;-1.930;2023-06-22T02:46:07;5.86;;;4.26;;
60641;SDS011;46837;52.446;-1.930;2023-06-22T02:47:07;5.10;;;3.10;;
60641;SDS011;46837;52.446;-1.930;2023-06-22T02:48:07;2.98;;;2.68;;
60641;SDS011;46837;52.446;-1.930;2023-06-22T02:49:07;4.90;;;3.16;;
60641;SDS011;46837;52.446;-1.930;2023-06-22T02:50:07;7.80;;;3.04;;
60641;SDS011;46837;52.446;-1.930;2023-06-22T02:51:07;5.54;;;3.56;;
60641;SDS011;46837;52.446;-1.930;2023-06-22T02:52:07;3.90;;;3.58;;
60641;SDS011;46837;52.446;-1.930;2023-06-22T02:53:07;8.58;;;3.14;;
60641;SDS011;46837;52.446;-1.930;2023-06-22T02:54:07;5.20;;;4.22;;
60641;SDS011;46837;52.446;-1.930;2023-06-22T02:55:07;4.90;;;3.56;;
60641;SDS011;46837;52.446;-1.930;2023-06-22T02:56:07;3.86;;;3.28;;
60641;SDS011;46837;52.446;-1.930;2023-06-22T02:57:07;4.12;;;3.40;;
60641;SDS011;46837;52.446;-1.930;2023-06-22T02:58:07;3.60;;;3.14;;
60641;SDS011;46837;52.446;-1.930;2023-06-22T02:59:07;4.08;;;3.44;;
60641;SDS011;46837;52.446;-1.930;2023-06-22T03:00:11;6.48;;;4.34;;
60641;SDS011;46837;52.446;-1.930;2023-06-22T03:01:07;4.48;;;3.46;;
60641;SDS011;46837;52.446;-1.930;2023-06-22T03:02:07;3.68;;;3.18;;
60641;SDS011;46837;52.446;-1.930;2023-06-22T03:03:07;3.76;;;2.98;;
60641;SDS011;46837;52.446;-1.930;2023-06-22T03:04:07;5.88;;;3.16;;
60641;SDS011;46837;52.446;-1.930;2023-06-22T03:05:07;4.14;;;3.00;;
60641;SDS011;46837;52.446;-1.930;2023-06-22T03:06:07;8.56;;;2.88;;
60641;SDS011;46837;52.446;-1.930;2023-06-22T03:07:07;7.88;;;3.64;;
60641;SDS011;46837;52.446;-1.930;2023-06-22T03:08:07;7.36;;;3.80;;
60641;SDS011;46837;52.446;-1.930;2023-06-22T03:09:07;4.34;;;3.32;;
60641;SDS011;46837;52.446;-1.930;2023-06-22T03:10:08;5.60;;;3.74;;
60641;SDS011;46837;52.446;-1.930;2023-06-22T03:11:07;5.72;;;3.32;;
60641;SDS011;46837;52.446;-1.930;2023-06-22T03:12:07;8.42;;;3.84;;
60641;SDS011;46837;52.446;-1.930;2023-06-22T03:13:07;5.60;;;3.40;;
60641;SDS011;46837;52.446;-1.930;2023-06-22T03:14:07;10.70;;;5.10;;
60641;SDS011;46837;52.446;-1.930;2023-06-22T03:15:11;4.26;;;3.34;;
60641;SDS011;46837;52.446;-1.930;2023-06-22T03:16:07;5.00;;;3.90;;
60641;SDS011;46837;52.446;-1.930;2023-06-22T03:17:07;5.36;;;4.18;;
60641;SDS011;46837;52.446;-1.930;2023-06-22T03:18:07;4.78;;;4.28;;
60641;SDS011;46837;52.446;-1.930;2023-06-22T03:19:07;7.36;;;3.88;;
60641;SDS011;46837;52.446;-1.930;2023-06-22T03:20:11;9.68;;;3.26;;
60641;SDS011;46837;52.446;-1.930;2023-06-22T03:21:07;5.48;;;3.28;;
60641;SDS011;46837;52.446;-1.930;2023-06-22T03:22:07;4.22;;;3.82;;
60641;SDS011;46837;52.446;-1.930;2023-06-22T03:23:07;3.84;;;3.36;;
60641;SDS011;46837;52.446;-1.930;2023-06-22T03:24:07;3.70;;;3.38;;
60641;SDS011;46837;52.446;-1.930;2023-06-22T03:25:10;6.28;;;3.94;;
60641;SDS011;46837;52.446;-1.930;2023-06-22T03:26:08;11.16;;;3.64;;
60641;SDS011;46837;52.446;-1.930;2023-06-22T03:27:07;6.68;;;3.64;;
60641;SDS011;46837;52.446;-1.930;2023-06-22T03:28:07;4.40;;;3.08;;
60641;SDS011;46837;52.446;-1.930;2023-06-22T03:29:07;3.50;;;3.22;;
60641;SDS011;46837;52.446;-1.930;2023-06-22T03:30:08;4.72;;;3.76;;
60641;SDS011;46837;52.446;-1.930;2023-06-22T03:31:07;6.72;;;3.96;;
60641;SDS011;46837;52.446;-1.930;2023-06-22T03:32:07;7.58;;;3.98;;
60641;SDS011;46837;52.446;-1.930;2023-06-22T03:33:07;4.18;;;3.84;;
60641;SDS011;46837;52.446;-1.930;2023-06-22T03:34:07;4.98;;;4.24;;
60641;SDS011;46837;52.446;-1.930;2023-06-22T03:35:07;6.40;;;4.50;;
60641;SDS011;46837;52.446;-1.930;2023-06-22T03:36:07;4.20;;;3.68;;
60641;SDS011;46837;52.446;-1.930;2023-06-22T03:37:07;6.22;;;4.02;;
60641;SDS011;46837;52.446;-1.930;2023-06-22T03:38:07;5.20;;;3.24;;
60641;SDS011;46837;52.446;-1.930;2023-06-22T03:39:07;6.52;;;3.50;;
60641;SDS011;46837;52.446;-1.930;2023-06-22T03:40:07;3.80;;;2.98;;
60641;SDS011;46837;52.446;-1.930;2023-06-22T03:41:07;3.78;;;3.46;;
60641;SDS011;46837;52.446;-1.930;2023-06-22T03:42:07;6.44;;;3.26;;
60641;SDS011;46837;52.446;-1.930;2023-06-22T03:43:07;4.36;;;3.48;;
60641;SDS011;46837;52.446;-1.930;2023-06-22T03:44:07;9.38;;;3.74;;
60641;SDS011;46837;52.446;-1.930;2023-06-22T03:45:07;6.08;;;3.66;;
60641;SDS011;46837;52.446;-1.930;2023-06-22T03:46:07;3.62;;;3.32;;
60641;SDS011;46837;52.446;-1.930;2023-06-22T03:47:08;6.28;;;4.30;;
60641;SDS011;46837;52.446;-1.930;2023-06-22T03:48:07;3.90;;;3.38;;
60641;SDS011;46837;52.446;-1.930;2023-06-22T03:49:07;7.40;;;4.40;;
60641;SDS011;46837;52.446;-1.930;2023-06-22T03:50:07;7.02;;;4.64;;
60641;SDS011;46837;52.446;-1.930;2023-06-22T03:51:07;6.26;;;4.80;;
60641;SDS011;46837;52.446;-1.930;2023-06-22T03:52:07;4.42;;;3.68;;
60641;SDS011;46837;52.446;-1.930;2023-06-22T03:53:07;5.58;;;4.44;;
60641;SDS011;46837;52.446;-1.930;2023-06-22T03:54:07;4.08;;;3.42;;
60641;SDS011;46837;52.446;-1.930;2023-06-22T03:55:07;6.34;;;3.16;;
60641;SDS011;46837;52.446;-1.930;2023-06-22T03:56:07;4.54;;;3.94;;
60641;SDS011;46837;52.446;-1.930;2023-06-22T03:57:07;6.66;;;4.10;;
60641;SDS011;46837;52.446;-1.930;2023-06-22T03:58:07;4.80;;;3.82;;
60641;SDS011;46837;52.446;-1.930;2023-06-22T03:59:07;4.36;;;3.90;;
60641;SDS011;46837;52.446;-1.930;2023-06-22T04:00:09;5.54;;;4.12;;
60641;SDS011;46837;52.446;-1.930;2023-06-22T04:01:07;6.24;;;3.88;;
60641;SDS011;46837;52.446;-1.930;2023-06-22T04:02:07;4.70;;;3.82;;
60641;SDS011;46837;52.446;-1.930;2023-06-22T04:03:08;5.86;;;4.10;;
60641;SDS011;46837;52.446;-1.930;2023-06-22T04:04:07;4.20;;;3.76;;
60641;SDS011;46837;52.446;-1.930;2023-06-22T04:05:08;6.12;;;4.10;;
60641;SDS011;46837;52.446;-1.930;2023-06-22T04:06:07;4.06;;;3.72;;
60641;SDS011;46837;52.446;-1.930;2023-06-22T04:07:07;9.50;;;4.42;;
60641;SDS011;46837;52.446;-1.930;2023-06-22T04:08:07;5.16;;;3.54;;
60641;SDS011;46837;52.446;-1.930;2023-06-22T04:09:07;9.02;;;3.98;;
60641;SDS011;46837;52.446;-1.930;2023-06-22T04:10:07;5.02;;;4.22;;
60641;SDS011;46837;52.446;-1.930;2023-06-22T04:11:07;6.62;;;3.50;;
60641;SDS011;46837;52.446;-1.930;2023-06-22T04:12:07;6.78;;;3.80;;
60641;SDS011;46837;52.446;-1.930;2023-06-22T04:13:07;4.02;;;3.48;;
60641;SDS011;46837;52.446;-1.930;2023-06-22T04:14:07;5.56;;;3.76;;
60641;SDS011;46837;52.446;-1.930;2023-06-22T04:15:07;7.84;;;3.54;;
60641;SDS011;46837;52.446;-1.930;2023-06-22T04:16:07;4.82;;;3.90;;
60641;SDS011;46837;52.446;-1.930;2023-06-22T04:17:07;4.08;;;3.28;;
60641;SDS011;46837;52.446;-1.930;2023-06-22T04:18:07;4.96;;;3.50;;
60641;SDS011;46837;52.446;-1.930;2023-06-22T04:19:07;5.70;;;3.90;;
60641;SDS011;46837;52.446;-1.930;2023-06-22T04:20:07;6.28;;;3.86;;
60641;SDS011;46837;52.446;-1.930;2023-06-22T04:21:07;4.74;;;3.90;;
60641;SDS011;46837;52.446;-1.930;2023-06-22T04:22:08;5.28;;;4.28;;
60641;SDS011;46837;52.446;-1.930;2023-06-22T04:23:07;4.18;;;3.78;;
60641;SDS011;46837;52.446;-1.930;2023-06-22T04:24:07;3.94;;;3.64;;
60641;SDS011;46837;52.446;-1.930;2023-06-22T04:25:07;3.80;;;3.46;;
60641;SDS011;46837;52.446;-1.930;2023-06-22T04:26:07;7.76;;;4.38;;
60641;SDS011;46837;52.446;-1.930;2023-06-22T04:27:07;4.98;;;3.82;;
60641;SDS011;46837;52.446;-1.930;2023-06-22T04:28:07;4.58;;;4.14;;
60641;SDS011;46837;52.446;-1.930;2023-06-22T04:29:07;4.10;;;3.76;;
60641;SDS011;46837;52.446;-1.930;2023-06-22T04:30:07;8.10;;;4.84;;
60641;SDS011;46837;52.446;-1.930;2023-06-22T04:31:07;5.14;;;3.86;;
60641;SDS011;46837;52.446;-1.930;2023-06-22T04:32:07;4.04;;;3.56;;
60641;SDS011;46837;52.446;-1.930;2023-06-22T04:33:07;5.00;;;4.18;;
60641;SDS011;46837;52.446;-1.930;2023-06-22T04:34:09;5.18;;;4.46;;
60641;SDS011;46837;52.446;-1.930;2023-06-22T04:35:07;4.56;;;4.04;;
60641;SDS011;46837;52.446;-1.930;2023-06-22T04:36:07;7.26;;;4.38;;
60641;SDS011;46837;52.446;-1.930;2023-06-22T04:37:07;4.20;;;3.90;;
60641;SDS011;46837;52.446;-1.930;2023-06-22T04:38:09;7.64;;;3.82;;
60641;SDS011;46837;52.446;-1.930;2023-06-22T04:39:08;5.46;;;4.00;;
60641;SDS011;46837;52.446;-1.930;2023-06-22T04:40:07;5.94;;;4.42;;
60641;SDS011;46837;52.446;-1.930;2023-06-22T04:41:07;10.70;;;4.54;;
60641;SDS011;46837;52.446;-1.930;2023-06-22T04:42:07;4.58;;;3.82;;
60641;SDS011;46837;52.446;-1.930;2023-06-22T04:43:07;5.94;;;4.60;;
60641;SDS011;46837;52.446;-1.930;2023-06-22T04:44:07;5.72;;;4.34;;
60641;SDS011;46837;52.446;-1.930;2023-06-22T04:45:07;5.54;;;4.30;;
60641;SDS011;46837;52.446;-1.930;2023-06-22T04:46:07;4.54;;;4.12;;
60641;SDS011;46837;52.446;-1.930;2023-06-22T04:47:09;5.82;;;4.52;;
60641;SDS011;46837;52.446;-1.930;2023-06-22T04:48:07;4.98;;;4.20;;
60641;SDS011;46837;52.446;-1.930;2023-06-22T04:49:07;7.72;;;4.10;;
60641;SDS011;46837;52.446;-1.930;2023-06-22T04:50:07;6.54;;;4.36;;
60641;SDS011;46837;52.446;-1.930;2023-06-22T04:51:07;4.38;;;3.50;;
60641;SDS011;46837;52.446;-1.930;2023-06-22T04:52:08;4.68;;;4.02;;
60641;SDS011;46837;52.446;-1.930;2023-06-22T04:53:07;6.32;;;4.86;;
60641;SDS011;46837;52.446;-1.930;2023-06-22T04:54:07;4.84;;;4.44;;
60641;SDS011;46837;52.446;-1.930;2023-06-22T04:55:07;4.76;;;4.36;;
60641;SDS011;46837;52.446;-1.930;2023-06-22T04:56:07;5.08;;;4.54;;
60641;SDS011;46837;52.446;-1.930;2023-06-22T04:57:07;16.70;;;5.56;;
60641;SDS011;46837;52.446;-1.930;2023-06-22T04:58:07;8.78;;;4.80;;
60641;SDS011;46837;52.446;-1.930;2023-06-22T04:59:07;11.34;;;4.50;;
60641;SDS011;46837;52.446;-1.930;2023-06-22T05:00:11;8.98;;;5.34;;
60641;SDS011;46837;52.446;-1.930;2023-06-22T05:01:07;5.22;;;4.74;;
60641;SDS011;46837;52.446;-1.930;2023-06-22T05:02:07;6.16;;;4.72;;
60641;SDS011;46837;52.446;-1.930;2023-06-22T05:03:07;5.38;;;4.56;;
60641;SDS011;46837;52.446;-1.930;2023-06-22T05:04:07;5.78;;;4.88;;
60641;SDS011;46837;52.446;-1.930;2023-06-22T05:05:09;6.08;;;4.94;;
60641;SDS011;46837;52.446;-1.930;2023-06-22T05:06:07;10.30;;;5.20;;
60641;SDS011;46837;52.446;-1.930;2023-06-22T05:07:07;7.18;;;5.86;;
60641;SDS011;46837;52.446;-1.930;2023-06-22T05:08:07;8.48;;;5.34;;
60641;SDS011;46837;52.446;-1.930;2023-06-22T05:09:07;5.56;;;4.86;;
60641;SDS011;46837;52.446;-1.930;2023-06-22T05:10:07;5.46;;;5.02;;
60641;SDS011;46837;52.446;-1.930;2023-06-22T05:11:07;5.58;;;4.64;;
60641;SDS011;46837;52.446;-1.930;2023-06-22T05:12:07;11.84;;;5.54;;
60641;SDS011;46837;52.446;-1.930;2023-06-22T05:13:07;5.06;;;4.54;;
60641;SDS011;46837;52.446;-1.930;2023-06-22T05:14:07;8.94;;;5.26;;
60641;SDS011;46837;52.446;-1.930;2023-06-22T05:15:07;7.92;;;6.04;;
60641;SDS011;46837;52.446;-1.930;2023-06-22T05:16:07;10.66;;;6.52;;
60641;SDS011;46837;52.446;-1.930;2023-06-22T05:17:11;8.20;;;6.66;;
60641;SDS011;46837;52.446;-1.930;2023-06-22T05:18:07;10.90;;;6.32;;
60641;SDS011;46837;52.446;-1.930;2023-06-22T05:19:07;12.90;;;7.54;;
60641;SDS011;46837;52.446;-1.930;2023-06-22T05:20:07;8.92;;;8.02;;
60641;SDS011;46837;52.446;-1.930;2023-06-22T05:21:07;9.58;;;6.94;;
60641;SDS011;46837;52.446;-1.930;2023-06-22T05:22:07;7.14;;;5.34;;
60641;SDS011;46837;52.446;-1.930;2023-06-22T05:23:07;8.32;;;6.78;;
60641;SDS011;46837;52.446;-1.930;2023-06-22T05:24:07;9.46;;;8.40;;
60641;SDS011;46837;52.446;-1.930;2023-06-22T05:25:08;8.72;;;7.88;;
60641;SDS011;46837;52.446;-1.930;2023-06-22T05:26:07;9.52;;;8.16;;
60641;SDS011;46837;52.446;-1.930;2023-06-22T05:27:07;9.60;;;8.36;;
60641;SDS011;46837;52.446;-1.930;2023-06-22T05:28:11;10.70;;;7.06;;
60641;SDS011;46837;52.446;-1.930;2023-06-22T05:29:07;16.50;;;9.14;;
60641;SDS011;46837;52.446;-1.930;2023-06-22T05:30:07;12.42;;;9.26;;
60641;SDS011;46837;52.446;-1.930;2023-06-22T05:31:07;9.70;;;8.08;;
60641;SDS011;46837;52.446;-1.930;2023-06-22T05:32:07;9.96;;;7.72;;
60641;SDS011;46837;52.446;-1.930;2023-06-22T05:33:07;12.34;;;8.16;;
60641;SDS011;46837;52.446;-1.930;2023-06-22T05:34:07;12.20;;;8.98;;
60641;SDS011;46837;52.446;-1.930;2023-06-22T05:35:07;9.38;;;7.92;;
60641;SDS011;46837;52.446;-1.930;2023-06-22T05:36:07;10.24;;;8.50;;
60641;SDS011;46837;52.446;-1.930;2023-06-22T05:37:07;10.40;;;8.26;;
60641;SDS011;46837;52.446;-1.930;2023-06-22T05:38:07;11.78;;;8.52;;
60641;SDS011;46837;52.446;-1.930;2023-06-22T05:40:07;15.26;;;8.78;;
60641;SDS011;46837;52.446;-1.930;2023-06-22T05:41:07;10.16;;;7.94;;
60641;SDS011;46837;52.446;-1.930;2023-06-22T05:42:07;13.92;;;8.20;;
60641;SDS011;46837;52.446;-1.930;2023-06-22T05:43:07;11.02;;;7.84;;
60641;SDS011;46837;52.446;-1.930;2023-06-22T05:44:07;11.40;;;8.24;;
60641;SDS011;46837;52.446;-1.930;2023-06-22T05:45:07;9.42;;;7.90;;
60641;SDS011;46837;52.446;-1.930;2023-06-22T05:46:07;14.28;;;8.56;;
60641;SDS011;46837;52.446;-1.930;2023-06-22T05:47:07;10.02;;;8.58;;
60641;SDS011;46837;52.446;-1.930;2023-06-22T05:48:07;11.50;;;8.24;;
60641;SDS011;46837;52.446;-1.930;2023-06-22T05:49:07;10.68;;;8.60;;
60641;SDS011;46837;52.446;-1.930;2023-06-22T05:50:07;13.34;;;8.48;;
60641;SDS011;46837;52.446;-1.930;2023-06-22T05:51:07;9.68;;;8.36;;
60641;SDS011;46837;52.446;-1.930;2023-06-22T05:52:07;12.74;;;8.38;;
60641;SDS011;46837;52.446;-1.930;2023-06-22T05:53:07;10.18;;;9.04;;
60641;SDS011;46837;52.446;-1.930;2023-06-22T05:54:07;17.82;;;9.44;;
60641;SDS011;46837;52.446;-1.930;2023-06-22T05:55:07;11.18;;;9.28;;
60641;SDS011;46837;52.446;-1.930;2023-06-22T05:56:07;11.32;;;9.60;;
60641;SDS011;46837;52.446;-1.930;2023-06-22T05:57:07;13.02;;;9.08;;
60641;SDS011;46837;52.446;-1.930;2023-06-22T05:58:07;14.22;;;9.14;;
60641;SDS011;46837;52.446;-1.930;2023-06-22T05:59:07;14.12;;;8.78;;
60641;SDS011;46837;52.446;-1.930;2023-06-22T06:00:11;22.62;;;10.94;;
60641;SDS011;46837;52.446;-1.930;2023-06-22T06:01:07;14.16;;;9.82;;
60641;SDS011;46837;52.446;-1.930;2023-06-22T06:02:07;11.24;;;8.78;;
60641;SDS011;46837;52.446;-1.930;2023-06-22T06:03:07;11.60;;;8.98;;
60641;SDS011;46837;52.446;-1.930;2023-06-22T06:04:07;11.18;;;9.10;;
60641;SDS011;46837;52.446;-1.930;2023-06-22T06:05:07;12.70;;;9.32;;